createdAt,value
2017-09-20T00:00:34.532Z,100696.94
2017-09-20T00:03:04.393Z,100697.17
2017-09-20T00:05:34.225Z,100699.42
2017-09-20T00:08:03.328Z,100700.31
2017-09-20T00:10:32.443Z,100699.75
2017-09-20T00:13:01.511Z,100682.92
2017-09-20T00:15:30.592Z,100697.83
2017-09-20T00:17:59.649Z,100692.80
2017-09-20T00:20:28.729Z,100694.63
2017-09-20T00:22:57.826Z,100699.42
2017-09-20T00:25:26.885Z,100703.12
2017-09-20T00:27:56.568Z,100700.64
2017-09-20T00:30:25.643Z,100692.08
2017-09-20T00:32:54.787Z,100699.19
2017-09-20T00:35:23.884Z,100693.68
2017-09-20T00:37:53.717Z,100702.09
2017-09-20T00:40:22.788Z,100694.80
2017-09-20T00:42:51.841Z,100701.91
2017-09-20T00:45:20.921Z,100697.59
2017-09-20T00:47:49.986Z,100699.34
2017-09-20T00:50:19.045Z,100698.06
2017-09-20T00:52:48.883Z,100692.88
2017-09-20T00:55:17.976Z,100694.94
2017-09-20T00:57:47.337Z,100692.95
2017-09-20T01:00:16.432Z,100689.03
2017-09-20T01:02:45.501Z,100692.80
2017-09-20T01:05:14.560Z,100692.45
2017-09-20T01:07:43.640Z,100688.30
2017-09-20T01:10:13.473Z,100685.42
2017-09-20T01:12:42.525Z,100686.11
2017-09-20T01:15:12.035Z,100682.99
2017-09-20T01:17:41.104Z,100687.87
2017-09-20T01:20:10.147Z,100676.51
2017-09-20T01:22:57.891Z,100681.31
2017-09-20T01:25:27.069Z,100679.00
2017-09-20T01:27:56.932Z,100677.72
2017-09-20T01:30:25.972Z,100681.01
2017-09-20T01:32:55.803Z,100678.98
2017-09-20T01:35:24.881Z,100685.39
2017-09-20T01:37:54.442Z,100678.02
2017-09-20T01:40:23.488Z,100676.42
2017-09-20T01:42:53.345Z,100677.30
2017-09-20T01:45:22.824Z,100679.47
2017-09-20T01:47:51.890Z,100676.42
2017-09-20T01:50:22.104Z,100670.09
2017-09-20T01:52:54.120Z,100668.90
2017-09-20T01:55:23.225Z,100668.66
2017-09-20T01:57:53.383Z,100668.42
2017-09-20T02:00:22.472Z,100664.23
2017-09-20T02:02:51.703Z,100661.77
2017-09-20T02:05:21.767Z,100666.81
2017-09-20T02:07:50.851Z,100677.05
2017-09-20T02:10:19.904Z,100668.42
2017-09-20T02:12:49.743Z,100665.61
2017-09-20T02:15:19.578Z,100661.67
2017-09-20T02:17:48.648Z,100656.09
2017-09-20T02:20:17.935Z,100655.14
2017-09-20T02:22:47.784Z,100650.87
2017-09-20T02:25:16.905Z,100653.76
2017-09-20T02:27:45.974Z,100665.83
2017-09-20T02:30:15.077Z,100664.80
2017-09-20T02:32:44.126Z,100667.14
2017-09-20T02:35:13.192Z,100669.13
2017-09-20T02:37:42.275Z,100666.09
2017-09-20T02:40:11.356Z,100672.82
2017-09-20T02:42:40.496Z,100667.06
2017-09-20T02:45:09.590Z,100665.20
2017-09-20T02:47:38.685Z,100664.73
2017-09-20T02:50:07.751Z,100673.14
2017-09-20T02:52:36.825Z,100666.80
2017-09-20T02:55:06.158Z,100668.56
2017-09-20T02:57:35.355Z,100668.16
2017-09-20T03:00:04.428Z,100677.39
2017-09-20T03:02:33.532Z,100678.74
2017-09-20T03:05:02.579Z,100676.76
2017-09-20T03:07:31.860Z,100674.67
2017-09-20T03:10:00.932Z,100677.23
2017-09-20T03:12:30.045Z,100674.67
2017-09-20T03:14:59.117Z,100677.30
2017-09-20T03:17:28.186Z,100673.55
2017-09-20T03:19:57.252Z,100681.06
2017-09-20T03:22:27.083Z,100681.01
2017-09-20T03:24:56.920Z,100685.41
2017-09-20T03:27:25.989Z,100690.20
2017-09-20T03:29:55.132Z,100688.14
2017-09-20T03:32:25.022Z,100691.72
2017-09-20T03:34:54.082Z,100683.16
2017-09-20T03:37:23.916Z,100687.64
2017-09-20T03:39:52.988Z,100697.42
2017-09-20T03:42:22.821Z,100694.45
2017-09-20T03:44:51.868Z,100697.75
2017-09-20T03:47:20.960Z,100708.16
2017-09-20T03:49:50.039Z,100704.14
2017-09-20T03:52:19.140Z,100691.50
2017-09-20T03:54:48.227Z,100687.18
2017-09-20T03:57:17.271Z,100683.50
2017-09-20T03:59:47.128Z,100691.81
2017-09-20T04:02:16.193Z,100699.85
2017-09-20T04:04:46.016Z,100699.42
2017-09-20T04:07:15.164Z,100714.75
2017-09-20T04:09:44.251Z,100716.59
2017-09-20T04:12:13.292Z,100710.98
2017-09-20T04:14:42.359Z,100705.21
2017-09-20T04:17:11.404Z,100705.69
2017-09-20T04:19:40.486Z,100702.56
2017-09-20T04:22:09.582Z,100710.27
2017-09-20T04:24:38.668Z,100701.27
2017-09-20T04:27:08.488Z,100698.23
2017-09-20T04:29:37.653Z,100697.28
2017-09-20T04:32:06.754Z,100695.20
2017-09-20T04:34:36.597Z,100696.33
2017-09-20T04:37:05.734Z,100696.47
2017-09-20T04:39:34.785Z,100695.69
2017-09-20T04:42:03.868Z,100695.66
2017-09-20T04:44:33.690Z,100703.38
2017-09-20T04:47:02.757Z,100701.05
2017-09-20T04:49:31.836Z,100698.33
2017-09-20T04:52:00.872Z,100698.96
2017-09-20T04:54:29.968Z,100698.78
2017-09-20T04:56:59.783Z,100705.94
2017-09-20T04:59:28.856Z,100709.53
2017-09-20T05:01:58.679Z,100700.96
2017-09-20T05:04:28.514Z,100707.55
2017-09-20T05:06:57.613Z,100715.63
2017-09-20T05:09:26.701Z,100716.03
2017-09-20T05:11:55.796Z,100715.14
2017-09-20T05:14:25.628Z,100712.26
2017-09-20T05:16:54.696Z,100718.27
2017-09-20T05:19:24.553Z,100708.80
2017-09-20T05:21:53.646Z,100704.78
2017-09-20T05:24:22.932Z,100702.09
2017-09-20T05:26:52.007Z,100715.05
2017-09-20T05:29:21.102Z,100712.44
2017-09-20T05:31:50.938Z,100713.79
2017-09-20T05:34:20.004Z,100719.33
2017-09-20T05:36:49.106Z,100713.23
2017-09-20T05:39:18.920Z,100714.76
2017-09-20T05:41:47.977Z,100710.34
2017-09-20T05:44:17.049Z,100717.08
2017-09-20T05:46:46.905Z,100716.92
2017-09-20T05:49:16.750Z,100722.05
2017-09-20T05:51:45.796Z,100721.89
2017-09-20T05:54:14.880Z,100725.50
2017-09-20T05:56:43.938Z,100723.48
2017-09-20T05:59:13.008Z,100723.88
2017-09-20T06:01:42.832Z,100726.84
2017-09-20T06:04:11.912Z,100730.59
2017-09-20T06:06:41.752Z,100728.61
2017-09-20T06:09:10.829Z,100725.41
2017-09-20T06:11:40.680Z,100727.78
2017-09-20T06:14:10.860Z,100725.95
2017-09-20T06:16:40.701Z,100730.22
2017-09-20T06:19:09.760Z,100726.52
2017-09-20T06:21:39.588Z,100728.59
2017-09-20T06:24:08.679Z,100729.41
2017-09-20T06:26:37.727Z,100727.31
2017-09-20T06:29:06.808Z,100731.87
2017-09-20T06:31:35.864Z,100728.52
2017-09-20T06:34:04.965Z,100724.36
2017-09-20T06:36:34.039Z,100726.13
2017-09-20T06:39:03.884Z,100720.41
2017-09-20T06:41:32.932Z,100722.91
2017-09-20T06:44:01.995Z,100724.34
2017-09-20T06:46:31.060Z,100734.91
2017-09-20T06:49:00.150Z,100737.58
2017-09-20T06:51:29.214Z,100730.73
2017-09-20T06:53:58.310Z,100721.99
2017-09-20T06:56:27.380Z,100732.67
2017-09-20T06:58:56.426Z,100727.84
2017-09-20T07:01:25.508Z,100727.14
2017-09-20T07:03:54.577Z,100743.08
2017-09-20T07:06:23.661Z,100746.54
2017-09-20T07:08:52.730Z,100744.88
2017-09-20T07:11:21.825Z,100752.33
2017-09-20T07:13:51.639Z,100755.93
2017-09-20T07:16:20.704Z,100759.22
2017-09-20T07:18:50.568Z,100758.33
2017-09-20T07:21:19.652Z,100752.88
2017-09-20T07:23:48.760Z,100755.34
2017-09-20T07:26:17.826Z,100758.00
2017-09-20T07:28:46.901Z,100754.05
2017-09-20T07:31:15.972Z,100755.67
2017-09-20T07:33:45.049Z,100756.61
2017-09-20T07:36:14.190Z,100760.30
2017-09-20T07:38:44.043Z,100763.59
2017-09-20T07:41:13.406Z,100754.81
2017-09-20T07:43:42.440Z,100756.97
2017-09-20T07:46:11.516Z,100757.03
2017-09-20T07:48:40.716Z,100757.90
2017-09-20T07:51:09.816Z,100762.06
2017-09-20T07:53:38.882Z,100763.28
2017-09-20T07:56:07.950Z,100761.02
2017-09-20T07:58:36.997Z,100767.17
2017-09-20T08:01:06.103Z,100767.12
2017-09-20T08:03:35.197Z,100761.67
2017-09-20T08:06:04.280Z,100764.16
2017-09-20T08:08:33.355Z,100766.27
2017-09-20T08:11:03.213Z,100763.66
2017-09-20T08:13:32.278Z,100759.72
2017-09-20T08:16:01.335Z,100767.25
2017-09-20T08:18:30.411Z,100769.51
2017-09-20T08:20:59.492Z,100772.81
2017-09-20T08:23:28.567Z,100772.59
2017-09-20T08:25:58.396Z,100768.08
2017-09-20T08:28:27.451Z,100765.25
2017-09-20T08:30:57.311Z,100779.94
2017-09-20T08:33:26.386Z,100771.33
2017-09-20T08:35:55.708Z,100771.77
2017-09-20T08:38:24.821Z,100772.00
2017-09-20T08:40:53.845Z,100776.27
2017-09-20T08:43:23.716Z,100769.19
2017-09-20T08:45:52.839Z,100776.13
2017-09-20T08:48:21.886Z,100779.80
2017-09-20T08:50:50.968Z,100778.33
2017-09-20T08:53:20.047Z,100769.52
2017-09-20T08:55:49.904Z,100774.38
2017-09-20T08:58:18.966Z,100776.84
2017-09-20T09:00:48.812Z,100775.08
2017-09-20T09:03:17.900Z,100766.91
2017-09-20T09:05:46.968Z,100771.98
2017-09-20T09:08:16.792Z,100771.98
2017-09-20T09:10:45.894Z,100773.20
2017-09-20T09:13:14.940Z,100778.80
2017-09-20T09:15:44.005Z,100774.83
2017-09-20T09:18:13.083Z,100777.83
2017-09-20T09:20:42.188Z,100773.89
2017-09-20T09:23:11.275Z,100773.84
2017-09-20T09:25:40.356Z,100776.77
2017-09-20T09:28:10.183Z,100782.78
2017-09-20T09:30:39.226Z,100781.66
2017-09-20T09:33:08.331Z,100779.13
2017-09-20T09:35:37.393Z,100778.69
2017-09-20T09:38:06.447Z,100781.78
2017-09-20T09:40:36.277Z,100779.72
2017-09-20T09:43:05.326Z,100776.98
2017-09-20T09:45:34.399Z,100772.16
2017-09-20T09:48:03.460Z,100773.17
2017-09-20T09:50:33.717Z,100769.77
2017-09-20T09:53:02.806Z,100773.31
2017-09-20T09:55:31.884Z,100772.19
2017-09-20T09:58:00.936Z,100773.22
2017-09-20T10:00:30.769Z,100774.81
2017-09-20T10:02:59.844Z,100770.62
2017-09-20T10:05:29.672Z,100781.31
2017-09-20T10:07:58.753Z,100775.17
2017-09-20T10:10:28.572Z,100778.97
2017-09-20T10:12:58.403Z,100778.05
2017-09-20T10:15:27.471Z,100778.67
2017-09-20T10:17:57.300Z,100785.48
2017-09-20T10:20:27.152Z,100785.83
2017-09-20T10:22:56.406Z,100780.17
2017-09-20T10:25:26.258Z,100780.92
2017-09-20T10:27:55.301Z,100777.20
2017-09-20T10:30:24.388Z,100781.36
2017-09-20T10:32:53.485Z,100778.67
2017-09-20T10:35:22.556Z,100776.41
2017-09-20T10:37:51.628Z,100774.54
2017-09-20T10:40:20.683Z,100778.16
2017-09-20T10:42:49.737Z,100769.85
2017-09-20T10:45:19.096Z,100771.67
2017-09-20T10:47:48.920Z,100774.17
2017-09-20T10:50:18.037Z,100773.16
2017-09-20T10:52:47.086Z,100771.27
2017-09-20T10:55:17.180Z,100769.05
2017-09-20T10:57:46.272Z,100765.59
2017-09-20T11:00:15.359Z,100773.72
2017-09-20T11:02:44.414Z,100773.79
2017-09-20T11:05:13.487Z,100776.16
2017-09-20T11:07:43.338Z,100766.61
2017-09-20T11:10:12.438Z,100769.28
2017-09-20T11:12:41.528Z,100765.04
2017-09-20T11:15:11.329Z,100764.20
2017-09-20T11:17:40.385Z,100767.22
2017-09-20T11:20:09.477Z,100765.83
2017-09-20T11:22:38.893Z,100763.19
2017-09-20T11:25:07.960Z,100760.01
2017-09-20T11:27:37.023Z,100761.14
2017-09-20T11:30:06.130Z,100764.84
2017-09-20T11:32:35.331Z,100758.09
2017-09-20T11:35:04.411Z,100760.06
2017-09-20T11:37:33.468Z,100748.97
2017-09-20T11:40:03.399Z,100747.83
2017-09-20T11:42:33.236Z,100743.43
2017-09-20T11:45:02.328Z,100752.19
2017-09-20T11:47:32.169Z,100745.16
2017-09-20T11:50:01.224Z,100739.05
2017-09-20T11:52:30.306Z,100733.73
2017-09-20T11:55:00.146Z,100733.02
2017-09-20T11:57:29.240Z,100727.88
2017-09-20T11:59:58.343Z,100732.58
2017-09-20T12:02:27.423Z,100725.14
2017-09-20T12:04:57.094Z,100723.50
2017-09-20T12:07:26.171Z,100718.61
2017-09-20T12:09:55.244Z,100718.87
2017-09-20T12:12:24.301Z,100716.02
2017-09-20T12:14:54.134Z,100709.84
2017-09-20T12:17:23.480Z,100708.89
2017-09-20T12:19:52.544Z,100709.92
2017-09-20T12:22:21.596Z,100712.60
2017-09-20T12:24:51.416Z,100717.77
2017-09-20T12:27:21.276Z,100711.03
2017-09-20T12:29:50.360Z,100713.86
2017-09-20T12:32:19.485Z,100713.14
2017-09-20T12:34:48.543Z,100705.23
2017-09-20T12:37:17.600Z,100707.25
2017-09-20T12:39:46.670Z,100706.00
2017-09-20T12:42:15.717Z,100707.83
2017-09-20T12:44:44.789Z,100701.25
2017-09-20T12:47:14.627Z,100706.72
2017-09-20T12:49:43.707Z,100696.88
2017-09-20T12:52:13.568Z,100700.52
2017-09-20T12:54:42.627Z,100708.24
2017-09-20T12:57:12.468Z,100700.91
2017-09-20T12:59:41.521Z,100704.11
2017-09-20T13:02:11.389Z,100697.09
2017-09-20T13:04:40.484Z,100694.75
2017-09-20T13:07:09.551Z,100698.16
2017-09-20T13:09:38.632Z,100694.48
2017-09-20T13:12:08.454Z,100695.72
2017-09-20T13:14:37.527Z,100688.95
2017-09-20T13:17:06.585Z,100696.73
2017-09-20T13:19:35.685Z,100687.91
2017-09-20T13:22:04.756Z,100690.08
2017-09-20T13:24:33.919Z,100691.45
2017-09-20T13:27:03.752Z,100689.72
2017-09-20T13:29:32.807Z,100689.44
2017-09-20T13:32:01.864Z,100687.12
2017-09-20T13:34:30.944Z,100684.63
2017-09-20T13:36:59.999Z,100684.59
2017-09-20T13:39:29.069Z,100681.48
2017-09-20T13:41:58.144Z,100682.25
2017-09-20T13:44:27.222Z,100686.58
2017-09-20T13:46:59.196Z,100684.05
2017-09-20T13:49:28.277Z,100680.66
2017-09-20T13:51:57.360Z,100681.37
2017-09-20T13:54:27.176Z,100674.97
2017-09-20T13:56:56.275Z,100665.98
2017-09-20T13:59:25.369Z,100666.97
2017-09-20T14:01:55.222Z,100667.02
2017-09-20T14:04:24.301Z,100664.66
2017-09-20T14:06:53.355Z,100670.19
2017-09-20T14:09:23.332Z,100667.81
2017-09-20T14:11:52.425Z,100666.40
2017-09-20T14:14:21.496Z,100663.18
2017-09-20T14:16:50.560Z,100666.61
2017-09-20T14:19:20.016Z,100665.60
2017-09-20T14:21:49.520Z,100664.16
2017-09-20T14:24:18.593Z,100668.49
2017-09-20T14:26:47.666Z,100675.88
2017-09-20T14:29:17.502Z,100676.10
2017-09-20T14:31:46.544Z,100663.70
2017-09-20T14:34:15.587Z,100665.33
2017-09-20T14:36:44.652Z,100671.01
2017-09-20T14:39:14.485Z,100668.14
2017-09-20T14:41:43.554Z,100669.70
2017-09-20T14:44:13.461Z,100669.11
2017-09-20T14:46:43.057Z,100667.28
2017-09-20T14:49:12.107Z,100667.13
2017-09-20T14:51:41.183Z,100669.84
2017-09-20T14:54:10.248Z,100671.41
2017-09-20T14:56:39.324Z,100665.02
2017-09-20T14:59:08.409Z,100668.72
2017-09-20T15:01:37.469Z,100670.77
2017-09-20T15:04:06.562Z,100670.73
2017-09-20T15:06:36.387Z,100668.91
2017-09-20T15:09:05.458Z,100669.11
2017-09-20T15:11:34.513Z,100674.09
2017-09-20T15:14:03.578Z,100671.43
2017-09-20T15:16:32.660Z,100676.12
2017-09-20T15:19:02.487Z,100666.88
2017-09-20T15:21:31.573Z,100676.60
2017-09-20T15:24:01.413Z,100677.77
2017-09-20T15:26:30.465Z,100678.22
2017-09-20T15:29:00.315Z,100682.48
2017-09-20T15:31:29.391Z,100675.99
2017-09-20T15:33:58.441Z,100677.73
2017-09-20T15:36:27.518Z,100689.22
2017-09-20T15:38:56.606Z,100684.19
2017-09-20T15:41:25.691Z,100684.81
2017-09-20T15:43:54.769Z,100683.50
2017-09-20T15:46:26.811Z,100685.13
2017-09-20T15:48:56.653Z,100682.20
2017-09-20T15:51:25.717Z,100684.77
2017-09-20T15:53:55.826Z,100689.15
2017-09-20T15:56:24.917Z,100686.98
2017-09-20T15:58:54.013Z,100684.98
2017-09-20T16:01:23.080Z,100683.62
2017-09-20T16:03:52.195Z,100681.16
2017-09-20T16:06:22.296Z,100686.00
2017-09-20T16:08:51.370Z,100687.95
2017-09-20T16:11:20.440Z,100692.07
2017-09-20T16:13:49.528Z,100686.08
2017-09-20T16:16:19.368Z,100687.73
2017-09-20T16:18:48.441Z,100685.96
2017-09-20T16:21:18.292Z,100683.61
2017-09-20T16:23:47.341Z,100683.71
2017-09-20T16:26:17.156Z,100692.13
2017-09-20T16:28:46.980Z,100692.23
2017-09-20T16:31:16.108Z,100693.81
2017-09-20T16:33:45.163Z,100698.04
2017-09-20T16:36:14.969Z,100697.96
2017-09-20T16:38:44.839Z,100700.52
2017-09-20T16:41:13.921Z,100698.31
2017-09-20T16:43:43.008Z,100703.33
2017-09-20T16:46:12.053Z,100700.80
2017-09-20T16:48:41.119Z,100698.03
2017-09-20T16:51:10.168Z,100701.75
2017-09-20T16:53:40.053Z,100706.02
2017-09-20T16:56:09.097Z,100706.18
2017-09-20T16:58:38.176Z,100710.75
2017-09-20T17:01:07.305Z,100708.42
2017-09-20T17:03:36.344Z,100707.01
2017-09-20T17:06:05.430Z,100710.77
2017-09-20T17:08:34.817Z,100711.99
2017-09-20T17:11:03.887Z,100710.45
2017-09-20T17:13:33.470Z,100700.65
2017-09-20T17:16:03.424Z,100699.91
2017-09-20T17:18:32.532Z,100707.34
2017-09-20T17:21:01.601Z,100705.02
2017-09-20T17:23:30.703Z,100705.50
2017-09-20T17:25:59.769Z,100709.56
2017-09-20T17:28:29.159Z,100713.20
2017-09-20T17:30:59.017Z,100711.37
2017-09-20T17:33:28.108Z,100717.43
2017-09-20T17:35:57.153Z,100720.59
2017-09-20T17:38:27.079Z,100718.34
2017-09-20T17:40:56.149Z,100724.74
2017-09-20T17:43:25.223Z,100722.44
2017-09-20T17:45:54.276Z,100729.02
2017-09-20T17:48:23.342Z,100733.64
2017-09-20T17:50:52.749Z,100740.05
2017-09-20T17:53:22.670Z,100738.77
2017-09-20T17:55:51.730Z,100736.20
2017-09-20T17:58:21.589Z,100743.97
2017-09-20T18:00:51.536Z,100748.47
2017-09-20T18:03:20.606Z,100748.42
2017-09-20T18:05:49.698Z,100748.99
2017-09-20T18:08:19.538Z,100754.38
2017-09-20T18:10:49.497Z,100757.52
2017-09-20T18:13:18.558Z,100755.92
2017-09-20T18:15:47.702Z,100758.95
2017-09-20T18:18:16.750Z,100764.34
2017-09-20T18:20:45.831Z,100760.19
2017-09-20T18:23:14.882Z,100761.73
2017-09-20T18:25:43.940Z,100765.44
2017-09-20T18:28:13.009Z,100767.38
2017-09-20T18:30:42.384Z,100766.44
2017-09-20T18:33:11.439Z,100759.54
2017-09-20T18:35:40.494Z,100762.08
2017-09-20T18:38:09.590Z,100757.30
2017-09-20T18:40:38.687Z,100761.66
2017-09-20T18:43:07.807Z,100758.98
2017-09-20T18:45:36.895Z,100753.85
2017-09-20T18:48:05.952Z,100758.05
2017-09-20T18:50:35.795Z,100764.83
2017-09-20T18:53:05.361Z,100764.20
2017-09-20T18:55:34.448Z,100769.88
2017-09-20T18:58:03.502Z,100770.73
2017-09-20T19:00:32.614Z,100768.98
2017-09-20T19:03:02.027Z,100771.27
2017-09-20T19:05:31.153Z,100775.22
2017-09-20T19:08:01.010Z,100769.15
2017-09-20T19:10:30.071Z,100778.44
2017-09-20T19:12:59.927Z,100775.50
2017-09-20T19:15:29.013Z,100773.75
2017-09-20T19:17:58.346Z,100769.78
2017-09-20T19:20:27.432Z,100767.22
2017-09-20T19:22:56.509Z,100766.77
2017-09-20T19:25:25.552Z,100764.09
2017-09-20T19:27:54.644Z,100765.25
2017-09-20T19:30:24.334Z,100767.29
2017-09-20T19:32:53.417Z,100768.47
2017-09-20T19:35:22.477Z,100765.84
2017-09-20T19:37:52.296Z,100759.88
2017-09-20T19:40:21.412Z,100765.41
2017-09-20T19:42:50.470Z,100761.99
2017-09-20T19:45:20.389Z,100769.17
2017-09-20T19:47:49.492Z,100769.67
2017-09-20T19:50:18.565Z,100767.81
2017-09-20T19:52:47.617Z,100762.46
2017-09-20T19:55:16.909Z,100769.80
2017-09-20T19:57:45.986Z,100771.95
2017-09-20T20:00:15.080Z,100768.67
2017-09-20T20:02:44.194Z,100768.94
2017-09-20T20:05:13.626Z,100770.48
2017-09-20T20:07:42.701Z,100766.95
2017-09-20T20:10:11.777Z,100769.22
2017-09-20T20:12:41.020Z,100764.41
2017-09-20T20:15:10.459Z,100768.77
2017-09-20T20:17:40.352Z,100763.41
2017-09-20T20:20:10.497Z,100761.95
2017-09-20T20:22:40.385Z,100767.11
2017-09-20T20:25:10.304Z,100767.45
2017-09-20T20:27:39.416Z,100763.06
2017-09-20T20:30:08.474Z,100767.38
2017-09-20T20:32:37.583Z,100761.06
2017-09-20T20:35:06.663Z,100767.16
2017-09-20T20:37:35.787Z,100773.98
2017-09-20T20:40:05.642Z,100772.08
2017-09-20T20:42:34.714Z,100770.02
2017-09-20T20:45:04.586Z,100776.73
2017-09-20T20:47:33.672Z,100768.81
2017-09-20T20:50:02.794Z,100775.81
2017-09-20T20:52:32.631Z,100777.34
2017-09-20T20:55:02.001Z,100773.48
2017-09-20T20:57:31.048Z,100781.92
2017-09-20T21:00:00.154Z,100773.57
2017-09-20T21:02:30.422Z,100772.54
2017-09-20T21:04:59.502Z,100772.54
2017-09-20T21:07:28.603Z,100773.56
2017-09-20T21:09:57.678Z,100777.92
2017-09-20T21:12:26.737Z,100777.52
2017-09-20T21:14:56.595Z,100768.30
2017-09-20T21:17:25.680Z,100770.46
2017-09-20T21:19:54.725Z,100767.89
2017-09-20T21:22:23.806Z,100774.61
2017-09-20T21:24:52.896Z,100775.11
2017-09-20T21:27:22.067Z,100779.36
2017-09-20T21:29:51.168Z,100778.79
2017-09-20T21:32:20.237Z,100777.12
2017-09-20T21:34:49.276Z,100780.02
2017-09-20T21:37:18.387Z,100772.63
2017-09-20T21:39:48.237Z,100777.27
2017-09-20T21:42:17.318Z,100780.25
2017-09-20T21:44:46.362Z,100779.55
2017-09-20T21:47:15.438Z,100775.45
2017-09-20T21:49:44.670Z,100775.98
2017-09-20T21:52:13.723Z,100772.78
2017-09-20T21:54:42.823Z,100777.70
2017-09-20T21:57:11.900Z,100773.77
2017-09-20T21:59:40.977Z,100771.50
2017-09-20T22:02:10.047Z,100773.66
2017-09-20T22:04:39.125Z,100776.57
2017-09-20T22:07:08.176Z,100778.47
2017-09-20T22:09:37.247Z,100780.09
2017-09-20T22:12:07.073Z,100773.34
2017-09-20T22:14:36.147Z,100788.42
2017-09-20T22:17:23.770Z,100780.01
2017-09-20T22:20:11.380Z,100780.95
2017-09-20T22:22:58.205Z,100785.13
2017-09-20T22:25:45.432Z,100781.03
2017-09-20T22:28:14.503Z,100772.20
2017-09-20T22:30:43.600Z,100775.41
2017-09-20T22:33:12.661Z,100776.78
2017-09-20T22:35:41.711Z,100768.67
2017-09-20T22:38:11.577Z,100774.69
2017-09-20T22:40:40.631Z,100764.83
2017-09-20T22:43:10.566Z,100773.16
2017-09-20T22:45:39.631Z,100767.39
2017-09-20T22:48:08.704Z,100774.52
2017-09-20T22:50:37.776Z,100770.02
2017-09-20T22:53:06.831Z,100775.63
2017-09-20T22:55:36.663Z,100773.64
2017-09-20T22:58:05.750Z,100774.34
2017-09-20T23:00:35.589Z,100777.56
2017-09-20T23:03:04.655Z,100772.24
2017-09-20T23:05:35.008Z,100777.78
2017-09-20T23:08:04.075Z,100778.98
2017-09-20T23:10:33.142Z,100773.93
2017-09-20T23:13:02.217Z,100776.89
2017-09-20T23:15:31.308Z,100774.49
2017-09-20T23:18:00.368Z,100775.13
2017-09-20T23:20:29.496Z,100778.58
2017-09-20T23:22:58.556Z,100775.53
2017-09-20T23:25:27.624Z,100779.78
2017-09-20T23:27:56.700Z,100773.69
2017-09-20T23:30:25.787Z,100773.45
2017-09-20T23:32:54.875Z,100775.94
2017-09-20T23:35:23.947Z,100777.61
2017-09-20T23:37:53.041Z,100776.17
2017-09-20T23:40:23.046Z,100778.27
2017-09-20T23:42:52.860Z,100782.27
2017-09-20T23:45:21.937Z,100786.11
2017-09-20T23:47:51.760Z,100788.59
2017-09-20T23:50:20.871Z,100785.71
2017-09-20T23:52:49.956Z,100788.20
2017-09-20T23:55:19.037Z,100782.59
2017-09-20T23:57:48.870Z,100781.84
